sensor_id;sensor_type;location;lat;lon;timestamp;temperature;humidity
23562;DHT22;11959;49.418;8.728;2023-12-14T00:01:44;8.20;99.90
23562;DHT22;11959;49.418;8.728;2023-12-14T00:04:11;8.20;99.90
23562;DHT22;11959;49.418;8.728;2023-12-14T00:06:37;8.20;99.90
23562;DHT22;11959;49.418;8.728;2023-12-14T00:09:03;8.20;99.90
23562;DHT22;11959;49.418;8.728;2023-12-14T00:11:29;8.20;99.90
23562;DHT22;11959;49.418;8.728;2023-12-14T00:13:55;8.20;99.90
23562;DHT22;11959;49.418;8.728;2023-12-14T00:16:21;8.20;99.90
23562;DHT22;11959;49.418;8.728;2023-12-14T00:18:46;8.20;99.90
23562;DHT22;11959;49.418;8.728;2023-12-14T00:21:12;8.20;99.90
23562;DHT22;11959;49.418;8.728;2023-12-14T00:23:37;8.20;99.90
23562;DHT22;11959;49.418;8.728;2023-12-14T00:26:03;8.20;99.90
23562;DHT22;11959;49.418;8.728;2023-12-14T00:28:29;8.20;99.90
23562;DHT22;11959;49.418;8.728;2023-12-14T00:30:54;8.20;99.90
23562;DHT22;11959;49.418;8.728;2023-12-14T00:33:20;8.20;99.90
23562;DHT22;11959;49.418;8.728;2023-12-14T00:35:46;8.20;99.90
23562;DHT22;11959;49.418;8.728;2023-12-14T00:38:12;8.30;99.90
23562;DHT22;11959;49.418;8.728;2023-12-14T00:40:38;8.20;99.90
23562;DHT22;11959;49.418;8.728;2023-12-14T00:43:03;8.30;99.90
23562;DHT22;11959;49.418;8.728;2023-12-14T00:45:29;8.30;99.90
23562;DHT22;11959;49.418;8.728;2023-12-14T00:47:54;8.30;99.90
23562;DHT22;11959;49.418;8.728;2023-12-14T00:50:20;8.30;99.90
23562;DHT22;11959;49.418;8.728;2023-12-14T00:52:46;8.30;99.90
23562;DHT22;11959;49.418;8.728;2023-12-14T00:55:11;8.30;99.90
23562;DHT22;11959;49.418;8.728;2023-12-14T00:57:37;8.40;99.90
23562;DHT22;11959;49.418;8.728;2023-12-14T01:00:03;8.40;99.90
23562;DHT22;11959;49.418;8.728;2023-12-14T01:02:29;8.40;99.90
23562;DHT22;11959;49.418;8.728;2023-12-14T01:04:54;8.30;99.90
23562;DHT22;11959;49.418;8.728;2023-12-14T01:07:20;8.40;99.90
23562;DHT22;11959;49.418;8.728;2023-12-14T01:09:46;8.40;99.90
23562;DHT22;11959;49.418;8.728;2023-12-14T01:12:11;8.40;99.90
23562;DHT22;11959;49.418;8.728;2023-12-14T01:14:37;8.40;99.90
23562;DHT22;11959;49.418;8.728;2023-12-14T01:17:03;8.40;99.90
23562;DHT22;11959;49.418;8.728;2023-12-14T01:19:28;8.30;99.90
23562;DHT22;11959;49.418;8.728;2023-12-14T01:21:54;8.30;99.90
23562;DHT22;11959;49.418;8.728;2023-12-14T01:24:20;8.40;99.90
23562;DHT22;11959;49.418;8.728;2023-12-14T01:26:46;8.40;99.90
23562;DHT22;11959;49.418;8.728;2023-12-14T01:29:12;8.40;99.90
23562;DHT22;11959;49.418;8.728;2023-12-14T01:31:37;8.30;99.90
23562;DHT22;11959;49.418;8.728;2023-12-14T01:34:03;8.30;99.90
23562;DHT22;11959;49.418;8.728;2023-12-14T01:36:29;8.40;99.90
23562;DHT22;11959;49.418;8.728;2023-12-14T01:38:54;8.30;99.90
23562;DHT22;11959;49.418;8.728;2023-12-14T01:41:20;8.30;99.90
23562;DHT22;11959;49.418;8.728;2023-12-14T01:43:45;8.30;99.90
23562;DHT22;11959;49.418;8.728;2023-12-14T01:46:11;8.30;99.90
23562;DHT22;11959;49.418;8.728;2023-12-14T01:48:38;8.30;99.90
23562;DHT22;11959;49.418;8.728;2023-12-14T01:51:04;8.30;99.90
23562;DHT22;11959;49.418;8.728;2023-12-14T01:53:29;8.30;99.90
23562;DHT22;11959;49.418;8.728;2023-12-14T01:55:56;8.30;99.90
23562;DHT22;11959;49.418;8.728;2023-12-14T01:58:21;8.30;99.90
23562;DHT22;11959;49.418;8.728;2023-12-14T02:01:10;8.30;99.90
23562;DHT22;11959;49.418;8.728;2023-12-14T02:03:44;8.40;99.90
23562;DHT22;11959;49.418;8.728;2023-12-14T02:06:10;8.30;99.90
23562;DHT22;11959;49.418;8.728;2023-12-14T02:08:36;8.30;99.90
23562;DHT22;11959;49.418;8.728;2023-12-14T02:11:02;8.30;99.90
23562;DHT22;11959;49.418;8.728;2023-12-14T02:13:27;8.30;99.90
23562;DHT22;11959;49.418;8.728;2023-12-14T02:15:53;8.40;99.90
23562;DHT22;11959;49.418;8.728;2023-12-14T02:18:19;8.40;99.90
23562;DHT22;11959;49.418;8.728;2023-12-14T02:20:45;8.30;99.90
23562;DHT22;11959;49.418;8.728;2023-12-14T02:23:10;8.30;99.90
23562;DHT22;11959;49.418;8.728;2023-12-14T02:25:36;8.30;99.90
23562;DHT22;11959;49.418;8.728;2023-12-14T02:28:02;8.30;99.90
23562;DHT22;11959;49.418;8.728;2023-12-14T02:30:27;8.30;99.90
23562;DHT22;11959;49.418;8.728;2023-12-14T02:32:53;8.30;99.90
23562;DHT22;11959;49.418;8.728;2023-12-14T02:35:19;8.30;99.90
23562;DHT22;11959;49.418;8.728;2023-12-14T02:37:44;8.30;99.90
23562;DHT22;11959;49.418;8.728;2023-12-14T02:40:10;8.20;99.90
23562;DHT22;11959;49.418;8.728;2023-12-14T02:42:36;8.20;99.90
23562;DHT22;11959;49.418;8.728;2023-12-14T02:45:03;8.20;99.90
23562;DHT22;11959;49.418;8.728;2023-12-14T02:47:29;8.20;99.90
23562;DHT22;11959;49.418;8.728;2023-12-14T02:49:55;8.20;99.90
23562;DHT22;11959;49.418;8.728;2023-12-14T02:52:21;8.20;99.90
23562;DHT22;11959;49.418;8.728;2023-12-14T02:54:47;8.20;99.90
23562;DHT22;11959;49.418;8.728;2023-12-14T02:57:12;8.20;99.90
23562;DHT22;11959;49.418;8.728;2023-12-14T02:59:39;8.20;99.90
23562;DHT22;11959;49.418;8.728;2023-12-14T03:02:04;8.20;99.90
23562;DHT22;11959;49.418;8.728;2023-12-14T03:04:30;8.10;99.90
23562;DHT22;11959;49.418;8.728;2023-12-14T03:06:56;8.20;99.90
23562;DHT22;11959;49.418;8.728;2023-12-14T03:09:22;8.10;99.90
23562;DHT22;11959;49.418;8.728;2023-12-14T03:11:48;8.10;99.90
23562;DHT22;11959;49.418;8.728;2023-12-14T03:14:14;8.10;99.90
23562;DHT22;11959;49.418;8.728;2023-12-14T03:16:39;8.10;99.90
23562;DHT22;11959;49.418;8.728;2023-12-14T03:19:05;8.20;99.90
23562;DHT22;11959;49.418;8.728;2023-12-14T03:21:31;8.20;99.90
23562;DHT22;11959;49.418;8.728;2023-12-14T03:23:56;8.20;99.90
23562;DHT22;11959;49.418;8.728;2023-12-14T03:26:22;8.20;99.90
23562;DHT22;11959;49.418;8.728;2023-12-14T03:28:48;8.20;99.90
23562;DHT22;11959;49.418;8.728;2023-12-14T03:31:13;8.20;99.90
23562;DHT22;11959;49.418;8.728;2023-12-14T03:33:40;8.20;99.90
23562;DHT22;11959;49.418;8.728;2023-12-14T03:36:06;8.20;99.90
23562;DHT22;11959;49.418;8.728;2023-12-14T03:38:33;8.20;99.90
23562;DHT22;11959;49.418;8.728;2023-12-14T03:40:59;8.20;99.90
23562;DHT22;11959;49.418;8.728;2023-12-14T03:43:24;8.20;99.90
23562;DHT22;11959;49.418;8.728;2023-12-14T03:45:50;8.20;99.90
23562;DHT22;11959;49.418;8.728;2023-12-14T03:48:15;8.20;99.90
23562;DHT22;11959;49.418;8.728;2023-12-14T03:50:41;8.20;99.90
23562;DHT22;11959;49.418;8.728;2023-12-14T03:53:07;8.20;99.90
23562;DHT22;11959;49.418;8.728;2023-12-14T03:55:33;8.20;99.90
23562;DHT22;11959;49.418;8.728;2023-12-14T03:57:58;8.20;99.90
23562;DHT22;11959;49.418;8.728;2023-12-14T04:00:24;8.20;99.90
23562;DHT22;11959;49.418;8.728;2023-12-14T04:02:50;8.20;99.90
23562;DHT22;11959;49.418;8.728;2023-12-14T04:05:16;8.20;99.90
23562;DHT22;11959;49.418;8.728;2023-12-14T04:07:41;8.20;99.90
23562;DHT22;11959;49.418;8.728;2023-12-14T04:10:11;8.20;99.90
23562;DHT22;11959;49.418;8.728;2023-12-14T04:12:37;8.20;99.90
23562;DHT22;11959;49.418;8.728;2023-12-14T04:15:04;8.20;99.90
23562;DHT22;11959;49.418;8.728;2023-12-14T04:17:30;8.20;99.90
23562;DHT22;11959;49.418;8.728;2023-12-14T04:19:56;8.20;99.90
23562;DHT22;11959;49.418;8.728;2023-12-14T04:22:22;8.20;99.90
23562;DHT22;11959;49.418;8.728;2023-12-14T04:24:48;8.20;99.90
23562;DHT22;11959;49.418;8.728;2023-12-14T04:27:14;8.20;99.90
23562;DHT22;11959;49.418;8.728;2023-12-14T04:29:40;8.20;99.90
23562;DHT22;11959;49.418;8.728;2023-12-14T04:32:06;8.20;99.90
23562;DHT22;11959;49.418;8.728;2023-12-14T04:34:32;8.20;99.90
23562;DHT22;11959;49.418;8.728;2023-12-14T04:36:57;8.20;99.90
23562;DHT22;11959;49.418;8.728;2023-12-14T04:39:24;8.20;99.90
23562;DHT22;11959;49.418;8.728;2023-12-14T04:41:50;8.20;99.90
23562;DHT22;11959;49.418;8.728;2023-12-14T04:44:18;8.20;99.90
23562;DHT22;11959;49.418;8.728;2023-12-14T04:46:43;8.20;99.90
23562;DHT22;11959;49.418;8.728;2023-12-14T04:49:09;8.20;99.90
23562;DHT22;11959;49.418;8.728;2023-12-14T04:51:35;8.30;99.90
23562;DHT22;11959;49.418;8.728;2023-12-14T04:54:00;8.20;99.90
23562;DHT22;11959;49.418;8.728;2023-12-14T04:56:26;8.20;99.90
23562;DHT22;11959;49.418;8.728;2023-12-14T04:58:52;8.10;99.90
23562;DHT22;11959;49.418;8.728;2023-12-14T05:01:17;8.20;99.90
23562;DHT22;11959;49.418;8.728;2023-12-14T05:03:43;8.10;99.90
23562;DHT22;11959;49.418;8.728;2023-12-14T05:06:09;8.00;99.90
23562;DHT22;11959;49.418;8.728;2023-12-14T05:08:34;8.10;99.90
23562;DHT22;11959;49.418;8.728;2023-12-14T05:11:01;8.10;99.90
23562;DHT22;11959;49.418;8.728;2023-12-14T05:13:26;8.00;99.90
23562;DHT22;11959;49.418;8.728;2023-12-14T05:15:52;8.00;99.90
23562;DHT22;11959;49.418;8.728;2023-12-14T05:18:18;8.00;99.90
23562;DHT22;11959;49.418;8.728;2023-12-14T05:20:43;8.00;99.90
23562;DHT22;11959;49.418;8.728;2023-12-14T05:23:11;8.00;99.90
23562;DHT22;11959;49.418;8.728;2023-12-14T05:25:37;8.00;99.90
23562;DHT22;11959;49.418;8.728;2023-12-14T05:28:02;8.00;99.90
23562;DHT22;11959;49.418;8.728;2023-12-14T05:30:29;8.00;99.90
23562;DHT22;11959;49.418;8.728;2023-12-14T05:32:54;8.10;99.90
23562;DHT22;11959;49.418;8.728;2023-12-14T05:35:20;8.10;99.90
23562;DHT22;11959;49.418;8.728;2023-12-14T05:37:46;8.00;99.90
23562;DHT22;11959;49.418;8.728;2023-12-14T05:40:11;8.00;99.90
23562;DHT22;11959;49.418;8.728;2023-12-14T05:42:37;8.00;99.90
23562;DHT22;11959;49.418;8.728;2023-12-14T05:45:07;7.90;99.90
23562;DHT22;11959;49.418;8.728;2023-12-14T05:47:32;7.90;99.90
23562;DHT22;11959;49.418;8.728;2023-12-14T05:50:00;7.90;99.90
23562;DHT22;11959;49.418;8.728;2023-12-14T05:52:26;7.90;99.90
23562;DHT22;11959;49.418;8.728;2023-12-14T05:54:51;7.90;99.90
23562;DHT22;11959;49.418;8.728;2023-12-14T05:57:17;7.90;99.90
23562;DHT22;11959;49.418;8.728;2023-12-14T05:59:43;7.90;99.90
23562;DHT22;11959;49.418;8.728;2023-12-14T06:02:08;7.90;99.90
23562;DHT22;11959;49.418;8.728;2023-12-14T06:04:34;8.00;99.90
23562;DHT22;11959;49.418;8.728;2023-12-14T06:07:00;8.00;99.90
23562;DHT22;11959;49.418;8.728;2023-12-14T06:09:25;8.00;99.90
23562;DHT22;11959;49.418;8.728;2023-12-14T06:12:04;8.00;99.90
23562;DHT22;11959;49.418;8.728;2023-12-14T06:14:30;8.00;99.90
23562;DHT22;11959;49.418;8.728;2023-12-14T06:16:57;8.00;99.90
23562;DHT22;11959;49.418;8.728;2023-12-14T06:19:23;8.00;99.90
23562;DHT22;11959;49.418;8.728;2023-12-14T06:21:48;8.10;99.90
23562;DHT22;11959;49.418;8.728;2023-12-14T06:24:14;8.10;99.90
23562;DHT22;11959;49.418;8.728;2023-12-14T06:26:44;8.10;99.90
23562;DHT22;11959;49.418;8.728;2023-12-14T06:29:11;8.10;99.90
23562;DHT22;11959;49.418;8.728;2023-12-14T06:31:38;8.10;99.90
23562;DHT22;11959;49.418;8.728;2023-12-14T06:34:04;8.10;99.90
23562;DHT22;11959;49.418;8.728;2023-12-14T06:36:30;8.10;99.90
23562;DHT22;11959;49.418;8.728;2023-12-14T06:38:57;8.00;99.90
23562;DHT22;11959;49.418;8.728;2023-12-14T06:41:23;8.00;99.90
23562;DHT22;11959;49.418;8.728;2023-12-14T06:43:49;8.00;99.90
23562;DHT22;11959;49.418;8.728;2023-12-14T06:46:15;8.00;99.90
23562;DHT22;11959;49.418;8.728;2023-12-14T06:48:41;8.10;99.90
23562;DHT22;11959;49.418;8.728;2023-12-14T06:51:07;8.10;99.90
23562;DHT22;11959;49.418;8.728;2023-12-14T06:53:35;8.10;99.90
23562;DHT22;11959;49.418;8.728;2023-12-14T06:56:03;8.10;99.90
23562;DHT22;11959;49.418;8.728;2023-12-14T06:58:28;8.10;99.90
23562;DHT22;11959;49.418;8.728;2023-12-14T07:00:54;8.10;99.90
23562;DHT22;11959;49.418;8.728;2023-12-14T07:03:20;8.10;99.90
23562;DHT22;11959;49.418;8.728;2023-12-14T07:05:45;8.00;99.90
23562;DHT22;11959;49.418;8.728;2023-12-14T07:08:11;8.00;99.90
23562;DHT22;11959;49.418;8.728;2023-12-14T07:10:42;8.00;99.90
23562;DHT22;11959;49.418;8.728;2023-12-14T07:13:11;8.00;99.90
23562;DHT22;11959;49.418;8.728;2023-12-14T07:15:38;8.00;99.90
23562;DHT22;11959;49.418;8.728;2023-12-14T07:18:03;8.00;99.90
23562;DHT22;11959;49.418;8.728;2023-12-14T07:20:29;8.00;99.90
23562;DHT22;11959;49.418;8.728;2023-12-14T07:22:55;8.00;99.90
23562;DHT22;11959;49.418;8.728;2023-12-14T07:25:20;8.00;99.90
23562;DHT22;11959;49.418;8.728;2023-12-14T07:27:46;8.00;99.90
23562;DHT22;11959;49.418;8.728;2023-12-14T07:30:12;8.00;99.90
23562;DHT22;11959;49.418;8.728;2023-12-14T07:32:38;8.00;99.90
23562;DHT22;11959;49.418;8.728;2023-12-14T07:35:05;8.00;99.90
23562;DHT22;11959;49.418;8.728;2023-12-14T07:37:31;8.00;99.90
23562;DHT22;11959;49.418;8.728;2023-12-14T07:39:56;8.00;99.90
23562;DHT22;11959;49.418;8.728;2023-12-14T07:42:23;8.10;99.90
23562;DHT22;11959;49.418;8.728;2023-12-14T07:44:49;8.00;99.90
23562;DHT22;11959;49.418;8.728;2023-12-14T07:47:14;8.00;99.90
23562;DHT22;11959;49.418;8.728;2023-12-14T07:49:40;8.00;99.90
23562;DHT22;11959;49.418;8.728;2023-12-14T07:52:06;7.90;99.90
23562;DHT22;11959;49.418;8.728;2023-12-14T07:54:32;8.00;99.90
23562;DHT22;11959;49.418;8.728;2023-12-14T07:56:57;7.90;99.90
23562;DHT22;11959;49.418;8.728;2023-12-14T07:59:23;8.00;99.90
23562;DHT22;11959;49.418;8.728;2023-12-14T08:01:49;8.00;99.90
23562;DHT22;11959;49.418;8.728;2023-12-14T08:04:15;8.00;99.90
23562;DHT22;11959;49.418;8.728;2023-12-14T08:06:41;8.00;99.90
23562;DHT22;11959;49.418;8.728;2023-12-14T08:09:07;8.00;99.90
23562;DHT22;11959;49.418;8.728;2023-12-14T08:11:33;8.10;99.90
23562;DHT22;11959;49.418;8.728;2023-12-14T08:13:58;8.10;99.90
23562;DHT22;11959;49.418;8.728;2023-12-14T08:16:24;8.10;99.90
23562;DHT22;11959;49.418;8.728;2023-12-14T08:18:50;8.10;99.90
23562;DHT22;11959;49.418;8.728;2023-12-14T08:21:17;8.10;99.90
23562;DHT22;11959;49.418;8.728;2023-12-14T08:23:43;8.10;99.90
23562;DHT22;11959;49.418;8.728;2023-12-14T08:26:09;8.10;99.90
23562;DHT22;11959;49.418;8.728;2023-12-14T08:28:36;8.10;99.90
23562;DHT22;11959;49.418;8.728;2023-12-14T08:31:03;8.20;99.90
23562;DHT22;11959;49.418;8.728;2023-12-14T08:33:29;8.20;99.90
23562;DHT22;11959;49.418;8.728;2023-12-14T08:35:55;8.20;99.90
23562;DHT22;11959;49.418;8.728;2023-12-14T08:38:21;8.30;99.90
23562;DHT22;11959;49.418;8.728;2023-12-14T08:40:47;8.30;99.90
23562;DHT22;11959;49.418;8.728;2023-12-14T08:43:13;8.30;99.90
23562;DHT22;11959;49.418;8.728;2023-12-14T08:45:38;8.40;99.90
23562;DHT22;11959;49.418;8.728;2023-12-14T08:48:04;8.40;99.90
23562;DHT22;11959;49.418;8.728;2023-12-14T08:50:30;8.50;99.90
23562;DHT22;11959;49.418;8.728;2023-12-14T08:52:56;8.50;99.90
23562;DHT22;11959;49.418;8.728;2023-12-14T08:55:24;8.50;99.90
23562;DHT22;11959;49.418;8.728;2023-12-14T08:57:50;8.50;99.90
23562;DHT22;11959;49.418;8.728;2023-12-14T09:00:16;8.50;99.90
23562;DHT22;11959;49.418;8.728;2023-12-14T09:02:43;8.60;99.90
23562;DHT22;11959;49.418;8.728;2023-12-14T09:05:12;8.50;99.90
23562;DHT22;11959;49.418;8.728;2023-12-14T09:07:37;8.50;99.90
23562;DHT22;11959;49.418;8.728;2023-12-14T09:10:03;8.50;99.90
23562;DHT22;11959;49.418;8.728;2023-12-14T09:12:29;8.50;99.90
23562;DHT22;11959;49.418;8.728;2023-12-14T09:14:55;8.50;99.90
23562;DHT22;11959;49.418;8.728;2023-12-14T09:17:21;8.50;99.90
23562;DHT22;11959;49.418;8.728;2023-12-14T09:19:47;8.50;99.90
23562;DHT22;11959;49.418;8.728;2023-12-14T09:22:12;8.60;99.90
23562;DHT22;11959;49.418;8.728;2023-12-14T09:24:38;8.60;99.90
23562;DHT22;11959;49.418;8.728;2023-12-14T09:27:04;8.60;99.90
23562;DHT22;11959;49.418;8.728;2023-12-14T09:29:29;8.60;99.90
23562;DHT22;11959;49.418;8.728;2023-12-14T09:31:55;8.60;99.90
23562;DHT22;11959;49.418;8.728;2023-12-14T09:34:21;8.60;99.90
23562;DHT22;11959;49.418;8.728;2023-12-14T09:36:46;8.70;99.90
23562;DHT22;11959;49.418;8.728;2023-12-14T09:39:12;8.70;99.90
23562;DHT22;11959;49.418;8.728;2023-12-14T09:41:38;8.70;99.90
23562;DHT22;11959;49.418;8.728;2023-12-14T09:47:26;8.80;99.90
23562;DHT22;11959;49.418;8.728;2023-12-14T09:49:52;8.80;99.90
23562;DHT22;11959;49.418;8.728;2023-12-14T09:52:18;8.80;99.90
23562;DHT22;11959;49.418;8.728;2023-12-14T09:54:44;8.80;99.90
23562;DHT22;11959;49.418;8.728;2023-12-14T09:57:10;8.80;99.90
23562;DHT22;11959;49.418;8.728;2023-12-14T09:59:37;8.80;99.90
23562;DHT22;11959;49.418;8.728;2023-12-14T10:02:13;8.80;99.90
23562;DHT22;11959;49.418;8.728;2023-12-14T10:04:39;8.80;99.90
23562;DHT22;11959;49.418;8.728;2023-12-14T10:07:05;8.80;99.90
23562;DHT22;11959;49.418;8.728;2023-12-14T10:09:36;8.80;99.90
23562;DHT22;11959;49.418;8.728;2023-12-14T10:12:08;8.70;99.90
23562;DHT22;11959;49.418;8.728;2023-12-14T10:14:35;8.80;99.90
23562;DHT22;11959;49.418;8.728;2023-12-14T10:20:23;8.80;99.90
23562;DHT22;11959;49.418;8.728;2023-12-14T10:22:49;8.80;99.90
23562;DHT22;11959;49.418;8.728;2023-12-14T10:25:17;8.80;99.90
23562;DHT22;11959;49.418;8.728;2023-12-14T10:27:51;8.70;99.90
23562;DHT22;11959;49.418;8.728;2023-12-14T10:30:20;8.70;99.90
23562;DHT22;11959;49.418;8.728;2023-12-14T10:32:49;8.70;99.90
23562;DHT22;11959;49.418;8.728;2023-12-14T10:35:16;8.80;99.90
23562;DHT22;11959;49.418;8.728;2023-12-14T10:37:42;8.80;99.90
23562;DHT22;11959;49.418;8.728;2023-12-14T10:40:13;8.80;99.90
23562;DHT22;11959;49.418;8.728;2023-12-14T10:42:42;8.80;99.90
23562;DHT22;11959;49.418;8.728;2023-12-14T10:45:11;8.80;99.90
23562;DHT22;11959;49.418;8.728;2023-12-14T10:47:39;8.80;99.90
23562;DHT22;11959;49.418;8.728;2023-12-14T10:50:09;8.80;99.90
23562;DHT22;11959;49.418;8.728;2023-12-14T10:52:35;8.80;99.90
23562;DHT22;11959;49.418;8.728;2023-12-14T10:55:06;8.80;99.90
23562;DHT22;11959;49.418;8.728;2023-12-14T10:57:34;8.80;99.90
23562;DHT22;11959;49.418;8.728;2023-12-14T11:00:01;8.80;99.90
23562;DHT22;11959;49.418;8.728;2023-12-14T11:02:27;8.80;99.90
23562;DHT22;11959;49.418;8.728;2023-12-14T11:05:02;8.90;99.90
23562;DHT22;11959;49.418;8.728;2023-12-14T11:10:14;8.90;99.90
23562;DHT22;11959;49.418;8.728;2023-12-14T11:13:02;8.90;99.90
23562;DHT22;11959;49.418;8.728;2023-12-14T11:15:38;9.00;99.90
23562;DHT22;11959;49.418;8.728;2023-12-14T11:23:15;8.90;99.90
23562;DHT22;11959;49.418;8.728;2023-12-14T11:29:10;9.00;99.90
23562;DHT22;11959;49.418;8.728;2023-12-14T11:31:35;9.00;99.90
23562;DHT22;11959;49.418;8.728;2023-12-14T11:34:01;9.00;99.90
23562;DHT22;11959;49.418;8.728;2023-12-14T11:36:28;9.00;99.90
23562;DHT22;11959;49.418;8.728;2023-12-14T11:38:54;9.00;99.90
23562;DHT22;11959;49.418;8.728;2023-12-14T11:41:23;9.00;99.90
23562;DHT22;11959;49.418;8.728;2023-12-14T11:43:51;9.00;99.90
23562;DHT22;11959;49.418;8.728;2023-12-14T11:46:16;8.90;99.90
23562;DHT22;11959;49.418;8.728;2023-12-14T11:48:46;9.00;99.90
23562;DHT22;11959;49.418;8.728;2023-12-14T11:51:15;9.00;99.90
23562;DHT22;11959;49.418;8.728;2023-12-14T11:53:46;9.00;99.90
23562;DHT22;11959;49.418;8.728;2023-12-14T11:56:16;9.00;99.90
23562;DHT22;11959;49.418;8.728;2023-12-14T11:58:44;9.00;99.90
23562;DHT22;11959;49.418;8.728;2023-12-14T12:01:21;9.00;99.90
23562;DHT22;11959;49.418;8.728;2023-12-14T12:03:48;9.10;99.90
23562;DHT22;11959;49.418;8.728;2023-12-14T12:06:25;9.10;99.90
23562;DHT22;11959;49.418;8.728;2023-12-14T12:08:52;9.00;99.90
23562;DHT22;11959;49.418;8.728;2023-12-14T12:11:19;9.00;99.90
23562;DHT22;11959;49.418;8.728;2023-12-14T12:13:53;9.00;99.90
23562;DHT22;11959;49.418;8.728;2023-12-14T12:16:19;9.00;99.90
23562;DHT22;11959;49.418;8.728;2023-12-14T12:18:45;9.00;99.90
23562;DHT22;11959;49.418;8.728;2023-12-14T12:21:13;9.00;99.90
23562;DHT22;11959;49.418;8.728;2023-12-14T12:23:39;9.00;99.90
23562;DHT22;11959;49.418;8.728;2023-12-14T12:26:07;9.00;99.90
23562;DHT22;11959;49.418;8.728;2023-12-14T12:28:33;8.90;99.90
23562;DHT22;11959;49.418;8.728;2023-12-14T12:30:58;9.00;99.90
23562;DHT22;11959;49.418;8.728;2023-12-14T12:33:27;8.90;99.90
23562;DHT22;11959;49.418;8.728;2023-12-14T12:35:53;8.90;99.90
23562;DHT22;11959;49.418;8.728;2023-12-14T12:38:20;8.90;99.90
23562;DHT22;11959;49.418;8.728;2023-12-14T12:40:45;8.90;99.90
23562;DHT22;11959;49.418;8.728;2023-12-14T12:43:12;8.90;99.90
23562;DHT22;11959;49.418;8.728;2023-12-14T12:45:37;8.90;99.90
23562;DHT22;11959;49.418;8.728;2023-12-14T12:48:03;8.90;99.90
23562;DHT22;11959;49.418;8.728;2023-12-14T12:50:31;8.90;99.90
23562;DHT22;11959;49.418;8.728;2023-12-14T12:52:57;8.80;99.90
23562;DHT22;11959;49.418;8.728;2023-12-14T12:55:22;8.80;99.90
23562;DHT22;11959;49.418;8.728;2023-12-14T12:57:48;8.80;99.90
23562;DHT22;11959;49.418;8.728;2023-12-14T13:00:15;8.80;99.90
23562;DHT22;11959;49.418;8.728;2023-12-14T13:02:42;8.80;99.90
23562;DHT22;11959;49.418;8.728;2023-12-14T13:05:09;8.80;99.90
23562;DHT22;11959;49.418;8.728;2023-12-14T13:07:35;8.80;99.90
23562;DHT22;11959;49.418;8.728;2023-12-14T13:10:02;8.80;99.90
23562;DHT22;11959;49.418;8.728;2023-12-14T13:12:29;8.80;99.90
23562;DHT22;11959;49.418;8.728;2023-12-14T13:14:55;8.80;99.90
23562;DHT22;11959;49.418;8.728;2023-12-14T13:17:21;8.90;99.90
23562;DHT22;11959;49.418;8.728;2023-12-14T13:19:46;8.90;99.90
23562;DHT22;11959;49.418;8.728;2023-12-14T13:22:12;8.90;99.90
23562;DHT22;11959;49.418;8.728;2023-12-14T13:24:38;8.90;99.90
23562;DHT22;11959;49.418;8.728;2023-12-14T13:27:04;8.80;99.90
23562;DHT22;11959;49.418;8.728;2023-12-14T13:29:33;8.80;99.90
23562;DHT22;11959;49.418;8.728;2023-12-14T13:32:00;8.80;99.90
23562;DHT22;11959;49.418;8.728;2023-12-14T13:37:47;8.90;99.90
23562;DHT22;11959;49.418;8.728;2023-12-14T13:40:13;8.90;99.90
23562;DHT22;11959;49.418;8.728;2023-12-14T13:42:39;8.90;99.90
23562;DHT22;11959;49.418;8.728;2023-12-14T13:45:05;8.90;99.90
23562;DHT22;11959;49.418;8.728;2023-12-14T13:47:31;8.90;99.90
23562;DHT22;11959;49.418;8.728;2023-12-14T13:49:57;8.80;99.90
23562;DHT22;11959;49.418;8.728;2023-12-14T13:52:22;8.90;99.90
23562;DHT22;11959;49.418;8.728;2023-12-14T13:54:48;8.80;99.90
23562;DHT22;11959;49.418;8.728;2023-12-14T13:57:14;8.90;99.90
23562;DHT22;11959;49.418;8.728;2023-12-14T13:59:39;8.90;99.90
23562;DHT22;11959;49.418;8.728;2023-12-14T14:02:05;8.90;99.90
23562;DHT22;11959;49.418;8.728;2023-12-14T14:04:30;8.80;99.90
23562;DHT22;11959;49.418;8.728;2023-12-14T14:06:56;8.80;99.90
23562;DHT22;11959;49.418;8.728;2023-12-14T14:12:43;8.80;99.90
23562;DHT22;11959;49.418;8.728;2023-12-14T14:15:09;8.80;99.90
23562;DHT22;11959;49.418;8.728;2023-12-14T14:17:35;8.80;99.90
23562;DHT22;11959;49.418;8.728;2023-12-14T14:23:22;8.80;99.90
23562;DHT22;11959;49.418;8.728;2023-12-14T14:25:50;8.80;99.90
23562;DHT22;11959;49.418;8.728;2023-12-14T14:28:20;8.80;99.90
23562;DHT22;11959;49.418;8.728;2023-12-14T14:30:46;8.80;99.90
23562;DHT22;11959;49.418;8.728;2023-12-14T14:33:11;8.80;99.90
23562;DHT22;11959;49.418;8.728;2023-12-14T14:35:39;8.70;99.90
23562;DHT22;11959;49.418;8.728;2023-12-14T14:38:04;8.70;99.90
23562;DHT22;11959;49.418;8.728;2023-12-14T14:40:30;8.70;99.90
23562;DHT22;11959;49.418;8.728;2023-12-14T14:42:56;8.60;99.90
23562;DHT22;11959;49.418;8.728;2023-12-14T14:45:21;8.60;99.90
23562;DHT22;11959;49.418;8.728;2023-12-14T14:47:47;8.60;99.90
23562;DHT22;11959;49.418;8.728;2023-12-14T14:50:13;8.60;99.90
23562;DHT22;11959;49.418;8.728;2023-12-14T14:52:38;8.60;99.90
23562;DHT22;11959;49.418;8.728;2023-12-14T14:55:04;8.70;99.90
23562;DHT22;11959;49.418;8.728;2023-12-14T14:57:30;8.60;99.90
23562;DHT22;11959;49.418;8.728;2023-12-14T14:59:57;8.60;99.90
23562;DHT22;11959;49.418;8.728;2023-12-14T15:02:23;8.60;99.90
23562;DHT22;11959;49.418;8.728;2023-12-14T15:04:49;8.50;99.90
23562;DHT22;11959;49.418;8.728;2023-12-14T15:07:14;8.50;99.90
23562;DHT22;11959;49.418;8.728;2023-12-14T15:09:40;8.50;99.90
23562;DHT22;11959;49.418;8.728;2023-12-14T15:12:06;8.50;99.90
23562;DHT22;11959;49.418;8.728;2023-12-14T15:14:31;8.50;99.90
23562;DHT22;11959;49.418;8.728;2023-12-14T15:16:57;8.40;99.90
23562;DHT22;11959;49.418;8.728;2023-12-14T15:19:23;8.40;99.90
23562;DHT22;11959;49.418;8.728;2023-12-14T15:21:49;8.40;99.90
23562;DHT22;11959;49.418;8.728;2023-12-14T15:24:15;8.40;99.90
23562;DHT22;11959;49.418;8.728;2023-12-14T15:26:43;8.40;99.90
23562;DHT22;11959;49.418;8.728;2023-12-14T15:29:09;8.40;99.90
23562;DHT22;11959;49.418;8.728;2023-12-14T15:31:35;8.20;99.90
23562;DHT22;11959;49.418;8.728;2023-12-14T15:34:00;8.10;99.90
23562;DHT22;11959;49.418;8.728;2023-12-14T15:36:27;8.10;99.90
23562;DHT22;11959;49.418;8.728;2023-12-14T15:38:53;8.10;99.90
23562;DHT22;11959;49.418;8.728;2023-12-14T15:41:18;8.10;99.90
23562;DHT22;11959;49.418;8.728;2023-12-14T15:43:45;8.10;99.90
23562;DHT22;11959;49.418;8.728;2023-12-14T15:46:10;8.10;99.90
23562;DHT22;11959;49.418;8.728;2023-12-14T15:48:36;8.10;99.90
23562;DHT22;11959;49.418;8.728;2023-12-14T15:51:04;8.10;99.90
23562;DHT22;11959;49.418;8.728;2023-12-14T15:53:30;8.10;99.90
23562;DHT22;11959;49.418;8.728;2023-12-14T15:55:56;7.90;99.90
23562;DHT22;11959;49.418;8.728;2023-12-14T15:58:22;7.90;99.90
23562;DHT22;11959;49.418;8.728;2023-12-14T16:00:48;7.90;99.90
23562;DHT22;11959;49.418;8.728;2023-12-14T16:03:14;7.90;99.90
23562;DHT22;11959;49.418;8.728;2023-12-14T16:05:39;7.90;99.90
23562;DHT22;11959;49.418;8.728;2023-12-14T16:08:05;7.90;99.90